createdAt,value
2018-08-03T00:00:21.700Z,0.00
2018-08-03T00:01:21.780Z,0.00
2018-08-03T00:02:21.703Z,0.00
2018-08-03T00:03:21.780Z,0.00
2018-08-03T00:04:21.791Z,0.00
2018-08-03T00:05:21.787Z,0.00
2018-08-03T00:06:21.692Z,0.00
2018-08-03T00:07:21.783Z,0.00
2018-08-03T00:08:21.785Z,0.00
2018-08-03T00:09:21.714Z,0.00
2018-08-03T00:10:21.792Z,0.00
2018-08-03T00:11:21.721Z,0.00
2018-08-03T00:12:21.794Z,0.00
2018-08-03T00:13:21.725Z,0.00
2018-08-03T00:14:21.731Z,0.00
2018-08-03T00:15:21.731Z,0.00
2018-08-03T00:16:21.729Z,0.00
2018-08-03T00:17:21.797Z,0.00
2018-08-03T00:18:21.728Z,0.00
2018-08-03T00:19:21.797Z,0.00
2018-08-03T00:20:21.758Z,0.00
2018-08-03T00:21:21.793Z,0.00
2018-08-03T00:22:21.798Z,0.00
2018-08-03T00:23:21.791Z,0.00
2018-08-03T00:24:21.705Z,0.00
2018-08-03T00:25:21.730Z,0.00
2018-08-03T00:26:21.725Z,0.00
2018-08-03T00:27:21.742Z,0.00
2018-08-03T00:28:21.789Z,0.00
2018-08-03T00:29:21.724Z,0.00
2018-08-03T00:30:21.814Z,0.00
2018-08-03T00:31:21.808Z,0.00
2018-08-03T00:32:21.809Z,0.00
2018-08-03T00:33:21.743Z,0.00
2018-08-03T00:34:21.767Z,0.00
2018-08-03T00:35:21.740Z,0.00
2018-08-03T00:36:21.811Z,0.00
2018-08-03T00:37:21.692Z,0.00
2018-08-03T00:38:21.749Z,0.00
2018-08-03T00:39:21.747Z,0.00
2018-08-03T00:40:21.734Z,0.00
2018-08-03T00:41:21.808Z,0.00
2018-08-03T00:42:21.809Z,0.00
2018-08-03T00:43:21.963Z,0.00
2018-08-03T00:44:21.805Z,0.00
2018-08-03T00:45:21.811Z,0.00
2018-08-03T00:46:21.736Z,0.00
2018-08-03T00:47:21.811Z,0.00
2018-08-03T00:48:21.722Z,0.00
2018-08-03T00:49:21.892Z,0.00
2018-08-03T00:50:21.798Z,0.00
2018-08-03T00:51:21.786Z,0.00
2018-08-03T00:52:21.777Z,0.00
2018-08-03T00:53:21.851Z,0.00
2018-08-03T00:54:21.746Z,0.00
2018-08-03T00:55:21.858Z,0.00
2018-08-03T00:56:21.764Z,0.00
2018-08-03T00:57:21.823Z,0.00
2018-08-03T00:58:21.725Z,0.00
2018-08-03T00:59:21.844Z,0.00
2018-08-03T01:00:21.784Z,0.00
2018-08-03T01:01:21.824Z,0.00
2018-08-03T01:02:21.726Z,0.00
2018-08-03T01:03:21.809Z,0.00
2018-08-03T01:04:21.719Z,0.00
2018-08-03T01:05:21.812Z,0.00
2018-08-03T01:06:21.762Z,0.00
2018-08-03T01:07:21.695Z,0.00
2018-08-03T01:08:21.755Z,0.00
2018-08-03T01:09:21.727Z,0.00
2018-08-03T01:10:21.773Z,0.00
2018-08-03T01:11:21.644Z,0.00
2018-08-03T01:12:21.871Z,0.00
2018-08-03T01:13:21.807Z,0.00
2018-08-03T01:14:21.861Z,0.00
2018-08-03T01:15:21.742Z,0.00
2018-08-03T01:16:21.813Z,0.00
2018-08-03T01:17:21.850Z,0.00
2018-08-03T01:18:21.838Z,0.00
2018-08-03T01:19:21.837Z,0.00
2018-08-03T01:20:21.806Z,0.00
2018-08-03T01:21:21.858Z,0.00
2018-08-03T01:22:21.814Z,0.00
2018-08-03T01:23:21.812Z,0.00
2018-08-03T01:24:21.813Z,0.00
2018-08-03T01:25:21.784Z,0.00
2018-08-03T01:26:21.903Z,0.00
2018-08-03T01:27:21.847Z,0.00
2018-08-03T01:28:21.761Z,0.00
2018-08-03T01:29:21.865Z,0.00
2018-08-03T01:30:21.838Z,0.00
2018-08-03T01:31:21.842Z,0.00
2018-08-03T01:32:21.843Z,0.00
2018-08-03T01:33:21.770Z,0.00
2018-08-03T01:34:21.779Z,0.00
2018-08-03T01:35:21.844Z,0.00
2018-08-03T01:36:21.773Z,0.00
2018-08-03T01:37:21.845Z,0.00
2018-08-03T01:38:21.845Z,0.00
2018-08-03T01:39:21.797Z,0.00
2018-08-03T01:40:21.778Z,0.00
2018-08-03T01:41:21.794Z,0.00
2018-08-03T01:42:21.854Z,0.00
2018-08-03T01:43:21.775Z,0.00
2018-08-03T01:44:21.775Z,0.00
2018-08-03T01:45:21.845Z,0.00
2018-08-03T01:46:21.723Z,0.00
2018-08-03T01:47:21.816Z,0.00
2018-08-03T01:48:21.730Z,0.00
2018-08-03T01:49:21.776Z,0.00
2018-08-03T01:50:21.800Z,0.00
2018-08-03T01:51:21.836Z,0.00
2018-08-03T01:52:21.860Z,0.00
2018-08-03T01:53:21.799Z,0.00
2018-08-03T01:54:21.885Z,0.00
2018-08-03T01:55:21.896Z,0.00
2018-08-03T01:56:21.780Z,0.00
2018-08-03T01:57:21.805Z,0.00
2018-08-03T01:58:21.900Z,0.00
2018-08-03T01:59:21.829Z,0.00
2018-08-03T02:00:21.769Z,0.00
2018-08-03T02:01:21.807Z,0.00
2018-08-03T02:02:21.809Z,0.00
2018-08-03T02:03:21.790Z,0.00
2018-08-03T02:04:21.836Z,0.00
2018-08-03T02:05:21.809Z,0.00
2018-08-03T02:06:21.904Z,0.00
2018-08-03T02:07:21.911Z,0.00
2018-08-03T02:08:21.834Z,0.00
2018-08-03T02:09:21.836Z,0.00
2018-08-03T02:10:21.856Z,0.00
2018-08-03T02:11:21.836Z,0.00
2018-08-03T02:12:21.876Z,0.00
2018-08-03T02:13:21.855Z,0.00
2018-08-03T02:14:21.853Z,0.00
2018-08-03T02:15:21.876Z,0.00
2018-08-03T02:16:21.863Z,0.00
2018-08-03T02:17:21.807Z,0.00
2018-08-03T02:18:21.903Z,0.00
2018-08-03T02:19:21.796Z,0.00
2018-08-03T02:20:21.856Z,0.00
2018-08-03T02:21:21.827Z,0.00
2018-08-03T02:22:21.786Z,0.00
2018-08-03T02:23:21.902Z,0.00
2018-08-03T02:24:21.860Z,0.00
2018-08-03T02:25:21.821Z,0.00
2018-08-03T02:26:21.919Z,0.00
2018-08-03T02:27:21.792Z,0.00
2018-08-03T02:28:21.806Z,0.00
2018-08-03T02:29:21.852Z,0.00
2018-08-03T02:30:21.912Z,0.00
2018-08-03T02:31:21.812Z,0.00
2018-08-03T02:32:21.924Z,0.00
2018-08-03T02:33:21.911Z,0.00
2018-08-03T02:34:21.864Z,0.00
2018-08-03T02:35:21.833Z,0.00
2018-08-03T02:36:21.829Z,0.00
2018-08-03T02:37:21.814Z,0.00
2018-08-03T02:38:21.868Z,0.00
2018-08-03T02:39:21.893Z,0.00
2018-08-03T02:40:21.860Z,0.00
2018-08-03T02:41:21.879Z,0.00
2018-08-03T02:42:21.862Z,0.00
2018-08-03T02:43:21.818Z,0.00
2018-08-03T02:44:21.801Z,0.00
2018-08-03T02:45:21.917Z,0.00
2018-08-03T02:46:21.800Z,0.00
2018-08-03T02:47:21.901Z,0.00
2018-08-03T02:48:21.910Z,0.00
2018-08-03T02:49:21.905Z,0.00
2018-08-03T02:50:21.939Z,0.00
2018-08-03T02:51:21.819Z,0.00
2018-08-03T02:52:21.863Z,0.00
2018-08-03T02:53:21.942Z,0.00
2018-08-03T02:54:21.822Z,0.00
2018-08-03T02:55:21.826Z,0.00
2018-08-03T02:56:21.834Z,0.00
2018-08-03T02:57:21.874Z,0.00
2018-08-03T02:58:21.936Z,0.00
2018-08-03T02:59:21.888Z,0.00
2018-08-03T03:00:21.888Z,0.00
2018-08-03T03:01:21.802Z,0.00
2018-08-03T03:02:21.782Z,0.00
2018-08-03T03:03:21.900Z,0.00
2018-08-03T03:04:21.805Z,0.00
2018-08-03T03:05:21.889Z,0.00
2018-08-03T03:06:21.780Z,0.00
2018-08-03T03:07:21.817Z,0.00
2018-08-03T03:08:21.981Z,0.00
2018-08-03T03:09:21.877Z,0.00
2018-08-03T03:10:21.873Z,0.00
2018-08-03T03:11:21.909Z,0.00
2018-08-03T03:12:21.907Z,0.00
2018-08-03T03:13:21.818Z,0.00
2018-08-03T03:14:21.896Z,0.00
2018-08-03T03:15:21.875Z,0.00
2018-08-03T03:16:21.879Z,0.00
2018-08-03T03:17:21.911Z,0.00
2018-08-03T03:18:21.798Z,0.00
2018-08-03T03:19:21.892Z,0.00
2018-08-03T03:20:21.840Z,0.00
2018-08-03T03:21:21.827Z,0.00
2018-08-03T03:22:21.937Z,0.00
2018-08-03T03:23:21.851Z,0.00
2018-08-03T03:24:21.871Z,0.00
2018-08-03T03:25:21.873Z,0.00
2018-08-03T03:26:21.915Z,0.00
2018-08-03T03:27:21.918Z,0.00
2018-08-03T03:28:21.874Z,0.00
2018-08-03T03:29:21.855Z,0.00
2018-08-03T03:30:21.933Z,0.00
2018-08-03T03:31:21.875Z,0.00
2018-08-03T03:32:21.934Z,0.00
2018-08-03T03:33:21.888Z,0.00
2018-08-03T03:34:21.987Z,0.00
2018-08-03T03:35:21.870Z,0.00
2018-08-03T03:36:21.949Z,0.00
2018-08-03T03:37:21.872Z,0.00
2018-08-03T03:38:21.942Z,0.00
2018-08-03T03:39:21.939Z,0.00
2018-08-03T03:40:21.877Z,0.00
2018-08-03T03:41:21.871Z,0.00
2018-08-03T03:42:21.889Z,0.00
2018-08-03T03:43:21.884Z,0.00
2018-08-03T03:44:21.938Z,0.00
2018-08-03T03:45:21.942Z,0.00
2018-08-03T03:46:21.882Z,0.00
2018-08-03T03:47:21.879Z,0.00
2018-08-03T03:48:21.943Z,0.00
2018-08-03T03:49:21.879Z,0.00
2018-08-03T03:50:21.900Z,0.00
2018-08-03T03:51:21.925Z,0.00
2018-08-03T03:52:21.847Z,0.00
2018-08-03T03:53:21.925Z,0.00
2018-08-03T03:54:21.931Z,0.00
2018-08-03T03:55:21.837Z,0.00
2018-08-03T03:56:21.890Z,0.00
2018-08-03T03:57:21.880Z,0.00
2018-08-03T03:58:21.946Z,0.00
2018-08-03T03:59:21.999Z,0.00
2018-08-03T04:00:21.891Z,0.00
2018-08-03T04:01:21.939Z,0.00
2018-08-03T04:02:21.952Z,0.00
2018-08-03T04:03:21.891Z,0.00
2018-08-03T04:04:21.876Z,1.00
2018-08-03T04:05:21.979Z,1.00
2018-08-03T04:06:21.928Z,1.00
2018-08-03T04:07:21.862Z,1.00
2018-08-03T04:08:21.959Z,1.00
2018-08-03T04:09:21.925Z,1.00
2018-08-03T04:10:21.898Z,1.00
2018-08-03T04:11:21.959Z,2.00
2018-08-03T04:12:21.913Z,2.00
2018-08-03T04:13:21.903Z,2.00
2018-08-03T04:14:21.894Z,2.00
2018-08-03T04:15:21.961Z,2.00
2018-08-03T04:16:21.969Z,2.00
2018-08-03T04:17:21.892Z,2.00
2018-08-03T04:18:21.975Z,2.00
2018-08-03T04:19:21.966Z,2.00
2018-08-03T04:20:21.990Z,2.00
2018-08-03T04:21:21.993Z,2.00
2018-08-03T04:22:21.890Z,2.00
2018-08-03T04:23:21.928Z,3.00
2018-08-03T04:24:21.937Z,3.00
2018-08-03T04:25:21.972Z,3.00
2018-08-03T04:26:22.001Z,3.00
2018-08-03T04:27:21.984Z,3.00
2018-08-03T04:28:21.991Z,3.00
2018-08-03T04:29:21.913Z,3.00
2018-08-03T04:30:21.923Z,3.00
2018-08-03T04:31:21.908Z,3.00
2018-08-03T04:32:21.873Z,3.00
2018-08-03T04:33:21.893Z,3.00
2018-08-03T04:34:21.972Z,3.00
2018-08-03T04:35:21.961Z,3.00
2018-08-03T04:36:21.912Z,4.00
2018-08-03T04:37:21.875Z,4.00
2018-08-03T04:38:21.898Z,4.00
2018-08-03T04:39:21.973Z,4.00
2018-08-03T04:40:21.942Z,4.00
2018-08-03T04:41:21.998Z,4.00
2018-08-03T04:42:22.070Z,4.00
2018-08-03T04:43:21.901Z,4.00
2018-08-03T04:44:21.850Z,4.00
2018-08-03T04:45:21.936Z,4.00
2018-08-03T04:46:21.968Z,4.00
2018-08-03T04:47:21.979Z,5.00
2018-08-03T04:48:21.976Z,5.00
2018-08-03T04:49:21.915Z,5.00
2018-08-03T04:50:21.907Z,5.00
2018-08-03T04:51:21.888Z,5.00
2018-08-03T04:52:21.893Z,5.00
2018-08-03T04:53:21.969Z,5.00
2018-08-03T04:54:22.000Z,5.00
2018-08-03T04:55:21.929Z,5.00
2018-08-03T04:56:21.989Z,5.00
2018-08-03T04:57:21.978Z,5.00
2018-08-03T04:58:21.984Z,5.00
2018-08-03T04:59:21.942Z,6.00
2018-08-03T05:00:21.960Z,6.00
2018-08-03T05:01:22.010Z,6.00
2018-08-03T05:02:21.900Z,6.00
2018-08-03T05:03:21.973Z,6.00
2018-08-03T05:04:22.120Z,6.00
2018-08-03T05:05:21.902Z,6.00
2018-08-03T05:06:22.000Z,6.00
2018-08-03T05:07:22.025Z,6.00
2018-08-03T05:08:21.916Z,6.00
2018-08-03T05:09:22.017Z,6.00
2018-08-03T05:10:22.029Z,7.00
2018-08-03T05:11:22.039Z,7.00
2018-08-03T05:12:21.996Z,7.00
2018-08-03T05:13:21.942Z,7.00
2018-08-03T05:14:21.994Z,7.00
2018-08-03T05:15:21.978Z,7.00
2018-08-03T05:16:21.942Z,7.00
2018-08-03T05:17:21.942Z,7.00
2018-08-03T05:18:21.921Z,7.00
2018-08-03T05:19:22.041Z,7.00
2018-08-03T05:20:22.000Z,7.00
2018-08-03T05:21:22.002Z,7.00
2018-08-03T05:22:21.985Z,7.00
2018-08-03T05:23:21.905Z,8.00
2018-08-03T05:24:21.985Z,8.00
2018-08-03T05:25:21.879Z,8.00
2018-08-03T05:26:21.904Z,8.00
2018-08-03T05:27:22.005Z,8.00
2018-08-03T05:28:21.972Z,8.00
2018-08-03T05:29:21.994Z,8.00
2018-08-03T05:30:21.986Z,8.00
2018-08-03T05:31:22.052Z,8.00
2018-08-03T05:32:21.948Z,8.00
2018-08-03T05:33:22.014Z,8.00
2018-08-03T05:34:22.042Z,8.00
2018-08-03T05:35:21.987Z,8.00
2018-08-03T05:36:22.009Z,9.00
2018-08-03T05:37:21.921Z,9.00
2018-08-03T05:38:21.999Z,9.00
2018-08-03T05:39:21.925Z,9.00
2018-08-03T05:40:21.949Z,9.00
2018-08-03T05:41:22.024Z,9.00
2018-08-03T05:42:21.960Z,9.00
2018-08-03T05:43:21.952Z,9.00
2018-08-03T05:44:22.025Z,9.00
2018-08-03T05:45:22.006Z,9.00
2018-08-03T05:46:21.962Z,9.00
2018-08-03T05:47:22.026Z,9.00
2018-08-03T05:48:22.035Z,9.00
2018-08-03T05:49:22.047Z,11.00
2018-08-03T05:50:22.054Z,18.00
2018-08-03T05:51:21.950Z,22.00
2018-08-03T05:52:22.079Z,23.00
2018-08-03T05:53:21.991Z,24.00
2018-08-03T05:54:21.950Z,24.00
2018-08-03T05:55:22.031Z,25.00
2018-08-03T05:56:22.003Z,25.00
2018-08-03T05:57:22.001Z,25.00
2018-08-03T05:58:22.015Z,26.00
2018-08-03T05:59:22.005Z,26.00
2018-08-03T06:00:21.962Z,26.00
2018-08-03T06:01:21.963Z,27.00
2018-08-03T06:02:21.959Z,27.00
2018-08-03T06:03:21.960Z,27.00
2018-08-03T06:04:21.964Z,27.00
2018-08-03T06:05:21.999Z,28.00
2018-08-03T06:06:21.946Z,28.00
2018-08-03T06:07:21.948Z,28.00
2018-08-03T06:08:22.047Z,29.00
2018-08-03T06:09:22.014Z,29.00
2018-08-03T06:10:21.970Z,29.00
2018-08-03T06:11:21.974Z,29.00
2018-08-03T06:12:21.934Z,30.00
2018-08-03T06:13:22.051Z,30.00
2018-08-03T06:14:21.976Z,30.00
2018-08-03T06:15:21.977Z,30.00
2018-08-03T06:16:22.052Z,31.00
2018-08-03T06:17:22.054Z,31.00
2018-08-03T06:18:22.056Z,31.00
2018-08-03T06:19:21.981Z,31.00
2018-08-03T06:20:21.981Z,31.00
2018-08-03T06:21:22.057Z,31.00
2018-08-03T06:22:22.125Z,31.00
2018-08-03T06:23:22.146Z,32.00
2018-08-03T06:24:22.014Z,32.00
2018-08-03T06:25:21.986Z,32.00
2018-08-03T06:26:21.987Z,33.00
2018-08-03T06:27:22.055Z,33.00
2018-08-03T06:28:22.127Z,34.00
2018-08-03T06:29:22.062Z,34.00
2018-08-03T06:30:22.060Z,34.00
2018-08-03T06:31:22.011Z,35.00
2018-08-03T06:32:21.931Z,35.00
2018-08-03T06:33:21.991Z,35.00
2018-08-03T06:34:21.933Z,36.00
2018-08-03T06:35:21.962Z,36.00
2018-08-03T06:36:21.947Z,37.00
2018-08-03T06:37:22.049Z,37.00
2018-08-03T06:38:22.008Z,37.00
2018-08-03T06:39:21.999Z,38.00
2018-08-03T06:40:22.058Z,38.00
2018-08-03T06:41:21.971Z,38.00
2018-08-03T06:42:22.061Z,39.00
2018-08-03T06:43:22.084Z,39.00
2018-08-03T06:44:22.064Z,39.00
2018-08-03T06:45:21.988Z,39.00
2018-08-03T06:46:22.086Z,40.00
2018-08-03T06:47:22.102Z,40.00
2018-08-03T06:48:22.122Z,41.00
2018-08-03T06:49:22.067Z,42.00
2018-08-03T06:50:22.011Z,42.00
2018-08-03T06:51:22.003Z,43.00
2018-08-03T06:52:22.075Z,43.00
2018-08-03T06:53:22.067Z,43.00
2018-08-03T06:54:22.078Z,43.00
2018-08-03T06:55:22.077Z,44.00
2018-08-03T06:56:22.076Z,44.00
2018-08-03T06:57:22.006Z,45.00
2018-08-03T06:58:22.009Z,45.00
2018-08-03T06:59:22.085Z,45.00
2018-08-03T07:00:22.030Z,45.00
2018-08-03T07:01:22.080Z,46.00
2018-08-03T07:02:22.081Z,46.00
2018-08-03T07:03:22.085Z,46.00
2018-08-03T07:04:22.063Z,47.00
2018-08-03T07:05:22.085Z,47.00
2018-08-03T07:06:22.084Z,47.00
2018-08-03T07:07:22.086Z,47.00
2018-08-03T07:08:22.018Z,48.00
2018-08-03T07:09:22.088Z,48.00
2018-08-03T07:10:22.088Z,48.00
2018-08-03T07:11:22.028Z,49.00
2018-08-03T07:12:22.016Z,49.00
2018-08-03T07:13:21.954Z,50.00
2018-08-03T07:14:21.991Z,50.00
2018-08-03T07:15:22.009Z,51.00
2018-08-03T07:16:22.069Z,51.00
2018-08-03T07:17:22.085Z,51.00
2018-08-03T07:18:21.991Z,52.00
2018-08-03T07:19:22.085Z,52.00
2018-08-03T07:20:22.183Z,53.00
2018-08-03T07:21:22.032Z,53.00
2018-08-03T07:22:22.090Z,53.00
2018-08-03T07:23:22.057Z,54.00
2018-08-03T07:24:22.066Z,55.00
2018-08-03T07:25:22.069Z,55.00
2018-08-03T07:26:22.123Z,55.00
2018-08-03T07:27:22.124Z,56.00
2018-08-03T07:28:22.098Z,56.00
2018-08-03T07:29:22.127Z,56.00
2018-08-03T07:30:22.061Z,57.00
2018-08-03T07:31:22.126Z,57.00
2018-08-03T07:32:22.096Z,58.00
2018-08-03T07:33:22.032Z,58.00
2018-08-03T07:34:22.042Z,58.00
2018-08-03T07:35:22.037Z,58.00
2018-08-03T07:36:22.103Z,59.00
2018-08-03T07:37:22.105Z,59.00
2018-08-03T07:38:22.038Z,59.00
2018-08-03T07:39:22.106Z,60.00
2018-08-03T07:40:22.040Z,60.00
2018-08-03T07:41:22.041Z,61.00
2018-08-03T07:42:22.063Z,61.00
2018-08-03T07:43:22.307Z,61.00
2018-08-03T07:44:22.143Z,61.00
2018-08-03T07:45:22.134Z,63.00
2018-08-03T07:46:22.144Z,63.00
2018-08-03T07:47:22.150Z,63.00
2018-08-03T07:48:22.075Z,64.00
2018-08-03T07:49:22.139Z,64.00
2018-08-03T07:50:22.030Z,64.00
2018-08-03T07:51:22.044Z,65.00
2018-08-03T07:52:22.151Z,66.00
2018-08-03T07:53:22.119Z,67.00
2018-08-03T07:54:22.119Z,67.00
2018-08-03T07:55:22.200Z,67.00
2018-08-03T07:56:22.048Z,67.00
2018-08-03T07:57:22.115Z,68.00
2018-08-03T07:58:22.049Z,68.00
2018-08-03T07:59:22.047Z,69.00
2018-08-03T08:00:22.117Z,69.00
2018-08-03T08:01:22.086Z,69.00
2018-08-03T08:02:22.080Z,68.00
2018-08-03T08:03:22.155Z,68.00
2018-08-03T08:04:22.076Z,69.00
2018-08-03T08:05:22.100Z,70.00
2018-08-03T08:06:22.076Z,70.00
2018-08-03T08:07:22.248Z,71.00
2018-08-03T08:08:22.083Z,71.00
2018-08-03T08:09:22.082Z,71.00
2018-08-03T08:10:22.093Z,71.00
2018-08-03T08:11:22.125Z,72.00
2018-08-03T08:12:22.057Z,73.00
2018-08-03T08:13:22.137Z,74.00
2018-08-03T08:14:22.060Z,74.00
2018-08-03T08:15:22.193Z,74.00
2018-08-03T08:16:22.148Z,74.00
2018-08-03T08:17:22.130Z,74.00
2018-08-03T08:18:22.068Z,74.00
2018-08-03T08:19:22.069Z,74.00
2018-08-03T08:20:22.124Z,75.00
2018-08-03T08:21:22.128Z,75.00
2018-08-03T08:22:22.064Z,76.00
2018-08-03T08:23:22.134Z,76.00
2018-08-03T08:24:22.072Z,76.00
2018-08-03T08:25:22.066Z,77.00
2018-08-03T08:26:22.134Z,77.00
2018-08-03T08:27:22.136Z,77.00
2018-08-03T08:28:22.071Z,77.00
2018-08-03T08:29:22.136Z,78.00
2018-08-03T08:30:22.113Z,78.00
2018-08-03T08:31:22.148Z,78.00
2018-08-03T08:32:22.177Z,80.00
2018-08-03T08:33:22.168Z,80.00
2018-08-03T08:34:22.140Z,81.00
2018-08-03T08:35:22.179Z,81.00
2018-08-03T08:36:22.108Z,82.00
2018-08-03T08:37:22.105Z,82.00
2018-08-03T08:38:22.171Z,82.00
2018-08-03T08:39:22.167Z,82.00
2018-08-03T08:40:22.124Z,82.00
2018-08-03T08:41:22.173Z,83.00
2018-08-03T08:42:22.098Z,83.00
2018-08-03T08:43:22.156Z,84.00
2018-08-03T08:44:22.173Z,83.00
2018-08-03T08:45:22.147Z,84.00
2018-08-03T08:46:22.116Z,84.00
2018-08-03T08:47:22.187Z,84.00
2018-08-03T08:48:22.070Z,85.00
2018-08-03T08:49:22.147Z,85.00
2018-08-03T08:50:22.220Z,86.00
2018-08-03T08:51:22.057Z,86.00
2018-08-03T08:52:22.117Z,86.00
2018-08-03T08:53:22.177Z,87.00
2018-08-03T08:54:22.156Z,87.00
2018-08-03T08:55:22.187Z,88.00
2018-08-03T08:56:22.192Z,89.00
2018-08-03T08:57:22.124Z,89.00
2018-08-03T08:58:22.191Z,89.00
2018-08-03T08:59:22.194Z,89.00
2018-08-03T09:00:22.135Z,88.00
2018-08-03T09:01:22.122Z,88.00
2018-08-03T09:02:22.195Z,89.00
2018-08-03T09:03:22.156Z,90.00
2018-08-03T09:04:22.185Z,90.00
2018-08-03T09:05:22.193Z,90.00
2018-08-03T09:06:22.102Z,90.00
2018-08-03T09:07:22.240Z,90.00
2018-08-03T09:08:22.065Z,91.00
2018-08-03T09:09:22.088Z,91.00
2018-08-03T09:10:22.132Z,91.00
2018-08-03T09:11:22.171Z,91.00
2018-08-03T09:12:22.122Z,90.00
2018-08-03T09:13:22.172Z,91.00
2018-08-03T09:14:22.124Z,91.00
2018-08-03T09:15:22.102Z,91.00
2018-08-03T09:16:22.106Z,92.00
2018-08-03T09:17:22.174Z,94.00
2018-08-03T09:18:22.124Z,94.00
2018-08-03T09:19:22.106Z,94.00
2018-08-03T09:20:22.114Z,95.00
2018-08-03T09:21:22.131Z,95.00
2018-08-03T09:22:22.154Z,96.00
2018-08-03T09:23:22.140Z,96.00
2018-08-03T09:24:22.134Z,96.00
2018-08-03T09:25:22.077Z,95.00
2018-08-03T09:26:22.079Z,96.00
2018-08-03T09:27:22.202Z,96.00
2018-08-03T09:28:22.173Z,96.00
2018-08-03T09:29:22.086Z,97.00
2018-08-03T09:30:22.099Z,97.00
2018-08-03T09:31:22.171Z,98.00
2018-08-03T09:32:22.086Z,97.00
2018-08-03T09:33:22.116Z,97.00
2018-08-03T09:34:22.176Z,97.00
2018-08-03T09:35:22.183Z,98.00
2018-08-03T09:36:22.083Z,98.00
2018-08-03T09:37:22.119Z,98.00
2018-08-03T09:38:22.180Z,98.00
2018-08-03T09:39:22.109Z,98.00
2018-08-03T09:40:22.181Z,98.00
2018-08-03T09:41:22.188Z,98.00
2018-08-03T09:42:22.167Z,98.00
2018-08-03T09:43:22.194Z,99.00
2018-08-03T09:44:22.124Z,99.00
2018-08-03T09:45:22.260Z,99.00
2018-08-03T09:46:22.199Z,99.00
2018-08-03T09:47:22.190Z,99.00
2018-08-03T09:48:22.135Z,99.00
2018-08-03T09:49:22.194Z,99.00
2018-08-03T09:50:22.127Z,99.00
2018-08-03T09:51:22.194Z,99.00
2018-08-03T09:52:22.172Z,99.00
2018-08-03T09:53:22.197Z,99.00
2018-08-03T09:54:22.177Z,99.00
2018-08-03T09:55:22.165Z,99.00
2018-08-03T09:56:22.120Z,99.00
2018-08-03T09:57:22.159Z,99.00
2018-08-03T09:58:22.223Z,99.00
2018-08-03T09:59:22.197Z,99.00
2018-08-03T10:00:22.170Z,99.00
2018-08-03T10:01:22.108Z,99.00
2018-08-03T10:02:22.170Z,99.00
2018-08-03T10:03:22.170Z,99.00
2018-08-03T10:04:22.243Z,99.00
2018-08-03T10:05:22.238Z,99.00
2018-08-03T10:06:22.204Z,99.00
2018-08-03T10:07:22.192Z,99.00
2018-08-03T10:08:22.208Z,99.00
2018-08-03T10:09:22.208Z,99.00
2018-08-03T10:10:22.182Z,99.00
2018-08-03T10:11:22.243Z,99.00
2018-08-03T10:12:22.205Z,99.00
2018-08-03T10:13:22.181Z,99.00
2018-08-03T10:14:22.247Z,99.00
2018-08-03T10:15:22.181Z,99.00
2018-08-03T10:16:22.191Z,99.00
2018-08-03T10:17:22.231Z,99.00
2018-08-03T10:18:22.115Z,99.00
2018-08-03T10:19:22.195Z,99.00
2018-08-03T10:20:22.220Z,99.00
2018-08-03T10:21:22.291Z,99.00
2018-08-03T10:22:22.241Z,99.00
2018-08-03T10:23:22.190Z,99.00
2018-08-03T10:24:22.221Z,99.00
2018-08-03T10:25:22.151Z,99.00
2018-08-03T10:26:22.222Z,99.00
2018-08-03T10:27:22.222Z,99.00
2018-08-03T10:28:22.152Z,99.00
2018-08-03T10:29:22.157Z,99.00
2018-08-03T10:30:22.223Z,99.00
2018-08-03T10:31:22.221Z,99.00
2018-08-03T10:32:22.155Z,99.00
2018-08-03T10:33:22.154Z,99.00
2018-08-03T10:34:22.223Z,99.00
2018-08-03T10:35:22.159Z,99.00
2018-08-03T10:36:22.158Z,99.00
2018-08-03T10:37:22.226Z,99.00
2018-08-03T10:38:22.159Z,99.00
2018-08-03T10:39:22.229Z,99.00
2018-08-03T10:40:22.161Z,99.00
2018-08-03T10:41:22.184Z,99.00
2018-08-03T10:42:22.229Z,99.00
2018-08-03T10:43:22.250Z,99.00
2018-08-03T10:44:22.208Z,99.00
2018-08-03T10:45:22.194Z,99.00
2018-08-03T10:46:22.152Z,99.00
2018-08-03T10:47:22.136Z,99.00
2018-08-03T10:48:22.132Z,99.00
2018-08-03T10:49:22.173Z,99.00
2018-08-03T10:50:22.202Z,99.00
2018-08-03T10:51:22.153Z,99.00
2018-08-03T10:52:22.103Z,99.00
2018-08-03T10:53:22.194Z,99.00
2018-08-03T10:54:22.124Z,99.00
2018-08-03T10:55:22.133Z,99.00
2018-08-03T10:56:22.161Z,99.00
2018-08-03T10:57:22.220Z,99.00
2018-08-03T10:58:22.135Z,99.00
2018-08-03T10:59:22.112Z,99.00
2018-08-03T11:00:22.110Z,99.00
2018-08-03T11:01:22.248Z,99.00
2018-08-03T11:02:22.249Z,99.00
2018-08-03T11:03:22.281Z,99.00
2018-08-03T11:04:22.243Z,99.00
2018-08-03T11:05:22.251Z,99.00
2018-08-03T11:06:22.220Z,99.00
2018-08-03T11:07:22.205Z,99.00
2018-08-03T11:08:22.154Z,99.00
2018-08-03T11:09:22.227Z,99.00
2018-08-03T11:10:22.206Z,99.00
2018-08-03T11:11:22.130Z,99.00
2018-08-03T11:12:22.240Z,99.00
2018-08-03T11:13:22.178Z,99.00
2018-08-03T11:14:22.199Z,99.00
2018-08-03T11:15:22.239Z,99.00
2018-08-03T11:16:22.202Z,99.00
2018-08-03T11:17:22.126Z,99.00
2018-08-03T11:18:22.141Z,99.00
2018-08-03T11:19:22.218Z,99.00
2018-08-03T11:20:22.150Z,99.00
2018-08-03T11:21:22.160Z,99.00
2018-08-03T11:22:22.192Z,99.00
2018-08-03T11:23:22.225Z,99.00
2018-08-03T11:24:22.313Z,99.00
2018-08-03T11:25:22.199Z,99.00
2018-08-03T11:26:22.260Z,99.00
2018-08-03T11:27:22.196Z,99.00
2018-08-03T11:28:22.194Z,99.00
2018-08-03T11:29:22.198Z,99.00
2018-08-03T11:30:22.262Z,99.00
2018-08-03T11:31:22.295Z,99.00
2018-08-03T11:32:22.190Z,99.00
2018-08-03T11:33:22.171Z,99.00
2018-08-03T11:34:22.198Z,99.00
2018-08-03T11:35:22.175Z,99.00
2018-08-03T11:36:22.257Z,99.00
2018-08-03T11:37:22.262Z,99.00
2018-08-03T11:38:22.200Z,99.00
2018-08-03T11:39:22.205Z,99.00
2018-08-03T11:40:22.263Z,99.00
2018-08-03T11:41:22.274Z,99.00
2018-08-03T11:42:22.275Z,99.00
2018-08-03T11:43:22.203Z,99.00
2018-08-03T11:44:22.274Z,99.00
2018-08-03T11:45:22.209Z,99.00
2018-08-03T11:46:22.247Z,99.00
2018-08-03T11:47:22.212Z,99.00
2018-08-03T11:48:22.352Z,99.00
2018-08-03T11:49:22.282Z,99.00
2018-08-03T11:50:22.212Z,99.00
2018-08-03T11:51:22.279Z,99.00
2018-08-03T11:52:22.240Z,99.00
2018-08-03T11:53:22.245Z,99.00
2018-08-03T11:54:22.300Z,99.00
2018-08-03T11:55:22.260Z,99.00
2018-08-03T11:56:22.177Z,99.00
2018-08-03T11:57:22.283Z,99.00
2018-08-03T11:58:22.281Z,99.00
2018-08-03T11:59:22.251Z,99.00
2018-08-03T12:00:22.264Z,99.00
2018-08-03T12:01:22.263Z,99.00
2018-08-03T12:02:22.222Z,99.00
2018-08-03T12:03:22.222Z,99.00
2018-08-03T12:04:22.288Z,99.00
2018-08-03T12:05:22.222Z,99.00
2018-08-03T12:06:22.249Z,99.00
2018-08-03T12:07:22.288Z,99.00
2018-08-03T12:08:22.226Z,99.00
2018-08-03T12:09:22.292Z,99.00
2018-08-03T12:10:22.235Z,99.00
2018-08-03T12:11:22.256Z,99.00
2018-08-03T12:12:22.278Z,99.00
2018-08-03T12:13:22.299Z,99.00
2018-08-03T12:14:22.226Z,99.00
2018-08-03T12:15:22.295Z,99.00
2018-08-03T12:16:22.227Z,99.00
2018-08-03T12:17:22.298Z,99.00
2018-08-03T12:18:22.233Z,99.00
2018-08-03T12:19:22.235Z,99.00
2018-08-03T12:20:22.230Z,99.00
2018-08-03T12:21:22.231Z,99.00
2018-08-03T12:22:22.299Z,99.00
2018-08-03T12:23:22.314Z,99.00
2018-08-03T12:24:22.254Z,99.00
2018-08-03T12:25:22.168Z,99.00
2018-08-03T12:26:22.252Z,99.00
2018-08-03T12:27:22.233Z,99.00
2018-08-03T12:28:22.260Z,99.00
2018-08-03T12:29:22.231Z,99.00
2018-08-03T12:30:22.211Z,99.00
2018-08-03T12:31:22.231Z,99.00
2018-08-03T12:32:22.099Z,99.00
2018-08-03T12:33:22.194Z,99.00
2018-08-03T12:34:22.091Z,99.00
2018-08-03T12:35:22.100Z,99.00
2018-08-03T12:36:22.093Z,99.00
2018-08-03T12:37:22.283Z,99.00
2018-08-03T12:38:22.098Z,99.00
2018-08-03T12:39:22.101Z,99.00
2018-08-03T12:40:22.101Z,99.00
2018-08-03T12:41:22.290Z,99.00
2018-08-03T12:42:22.329Z,99.00
2018-08-03T12:43:22.230Z,99.00
2018-08-03T12:44:22.276Z,99.00
2018-08-03T12:45:22.293Z,99.00
2018-08-03T12:46:22.218Z,99.00
2018-08-03T12:47:22.349Z,99.00
2018-08-03T12:48:22.352Z,99.00
2018-08-03T12:49:22.273Z,99.00
2018-08-03T12:50:22.299Z,99.00
2018-08-03T12:51:22.339Z,99.00
2018-08-03T12:52:22.319Z,99.00
2018-08-03T12:53:22.220Z,99.00
2018-08-03T12:54:22.351Z,99.00
2018-08-03T12:55:22.359Z,99.00
2018-08-03T12:56:22.286Z,99.00
2018-08-03T12:57:22.281Z,99.00
2018-08-03T12:58:22.223Z,98.00
2018-08-03T12:59:22.288Z,98.00
2018-08-03T13:00:22.223Z,99.00
2018-08-03T13:01:22.324Z,99.00
2018-08-03T13:02:22.265Z,98.00
2018-08-03T13:03:22.326Z,97.00